createdAt,value
2023-02-08T00:00:03.757Z,1.90
2023-02-08T00:01:03.185Z,1.91
2023-02-08T00:02:03.649Z,1.93
2023-02-08T00:03:03.676Z,1.89
2023-02-08T00:04:03.883Z,1.89
2023-02-08T00:05:03.678Z,1.88
2023-02-08T00:06:03.730Z,1.89
2023-02-08T00:07:04.511Z,1.86
2023-02-08T00:08:03.911Z,1.88
2023-02-08T00:09:04.134Z,1.88
2023-02-08T00:10:04.426Z,1.87
2023-02-08T00:11:04.388Z,1.89
2023-02-08T00:12:03.281Z,1.88
2023-02-08T00:13:03.282Z,1.86
2023-02-08T00:14:03.379Z,1.88
2023-02-08T00:15:03.101Z,1.85
2023-02-08T00:16:03.058Z,1.91
2023-02-08T00:17:03.636Z,1.83
2023-02-08T00:18:03.613Z,1.84
2023-02-08T00:19:03.583Z,1.88
2023-02-08T00:20:03.549Z,1.86
2023-02-08T00:21:03.192Z,1.86
2023-02-08T00:22:03.891Z,1.88
2023-02-08T00:23:03.410Z,1.85
2023-02-08T00:24:03.462Z,1.86
2023-02-08T00:25:03.678Z,1.88
2023-02-08T00:26:03.769Z,1.86
2023-02-08T00:27:03.100Z,1.82
2023-02-08T00:28:04.665Z,1.83
2023-02-08T00:29:03.174Z,1.87
2023-02-08T00:30:03.311Z,1.85
2023-02-08T00:31:03.400Z,1.84
2023-02-08T00:32:04.032Z,1.84
2023-02-08T00:33:03.705Z,1.83
2023-02-08T00:34:03.526Z,1.85
2023-02-08T00:35:03.584Z,1.88
2023-02-08T00:36:03.479Z,1.82
2023-02-08T00:37:03.610Z,1.80
2023-02-08T00:38:03.597Z,1.84
2023-02-08T00:39:03.927Z,1.84
2023-02-08T00:40:03.800Z,1.82
2023-02-08T00:41:03.762Z,1.83
2023-02-08T00:42:03.003Z,1.83
2023-02-08T00:43:02.998Z,1.86
2023-02-08T00:44:03.439Z,1.87
2023-02-08T00:45:03.175Z,1.84
2023-02-08T00:46:03.262Z,1.84
2023-02-08T00:47:03.846Z,1.83
2023-02-08T00:48:03.247Z,1.81
2023-02-08T00:49:03.450Z,1.82
2023-02-08T00:50:03.681Z,1.80
2023-02-08T00:51:03.596Z,1.80
2023-02-08T00:52:02.637Z,1.82
2023-02-08T00:53:02.802Z,1.80
2023-02-08T00:54:03.017Z,1.79
2023-02-08T00:55:03.052Z,1.83
2023-02-08T00:56:02.736Z,1.83
2023-02-08T00:57:02.890Z,1.81
2023-02-08T00:58:02.950Z,1.81
2023-02-08T00:59:02.941Z,1.83
2023-02-08T01:00:02.891Z,1.79
2023-02-08T01:01:03.013Z,1.84
2023-02-08T01:02:04.435Z,1.79
2023-02-08T01:03:04.592Z,1.82
2023-02-08T01:04:03.986Z,1.80
2023-02-08T01:05:04.223Z,1.79
2023-02-08T01:06:04.284Z,1.80
2023-02-08T01:07:03.453Z,1.81
2023-02-08T01:08:03.761Z,1.79
2023-02-08T01:09:03.820Z,1.80
2023-02-08T01:10:03.856Z,1.81
2023-02-08T01:11:03.483Z,1.80
2023-02-08T01:12:03.416Z,1.83
2023-02-08T01:13:03.716Z,1.79
2023-02-08T01:14:03.735Z,1.76
2023-02-08T01:15:03.721Z,1.78
2023-02-08T01:16:03.889Z,1.82
2023-02-08T01:17:04.277Z,1.81
2023-02-08T01:18:04.287Z,1.78
2023-02-08T01:19:03.852Z,1.79
2023-02-08T01:20:03.958Z,1.79
2023-02-08T01:21:03.829Z,1.81
2023-02-08T01:22:03.855Z,1.80
2023-02-08T01:23:03.838Z,1.79
2023-02-08T01:24:03.820Z,1.80
2023-02-08T01:25:03.712Z,1.78
2023-02-08T01:26:03.466Z,1.80
2023-02-08T01:27:03.717Z,1.77
2023-02-08T01:28:03.747Z,1.77
2023-02-08T01:29:03.783Z,1.77
2023-02-08T01:30:03.784Z,1.76
2023-02-08T01:31:03.898Z,1.77
2023-02-08T01:32:03.845Z,1.77
2023-02-08T01:33:04.098Z,1.76
2023-02-08T01:34:04.174Z,1.77
2023-02-08T01:35:04.155Z,1.80
2023-02-08T01:36:04.248Z,1.76
2023-02-08T01:37:03.366Z,1.78
2023-02-08T01:38:03.377Z,1.73
2023-02-08T01:39:03.079Z,1.75
2023-02-08T01:40:03.172Z,1.79
2023-02-08T01:41:03.283Z,1.77
2023-02-08T01:42:03.510Z,1.76
2023-02-08T01:43:03.354Z,1.74
2023-02-08T01:44:03.515Z,1.77
2023-02-08T01:45:03.514Z,1.74
2023-02-08T01:46:03.628Z,1.75
2023-02-08T01:47:03.880Z,1.72
2023-02-08T01:48:03.968Z,1.77
2023-02-08T01:49:04.028Z,1.74
2023-02-08T01:50:03.357Z,1.73
2023-02-08T01:51:03.714Z,1.72
2023-02-08T01:52:03.794Z,1.75
2023-02-08T01:53:03.820Z,1.75
2023-02-08T01:54:03.876Z,1.76
2023-02-08T01:55:03.737Z,1.77
2023-02-08T01:56:03.800Z,1.72
2023-02-08T01:57:03.416Z,1.73
2023-02-08T01:58:02.747Z,1.75
2023-02-08T01:59:02.943Z,1.72
2023-02-08T02:00:03.010Z,1.73
2023-02-08T02:01:03.120Z,1.73
2023-02-08T02:02:04.422Z,1.74
2023-02-08T02:03:04.171Z,1.69
2023-02-08T02:04:04.296Z,1.71
2023-02-08T02:05:04.239Z,1.74
2023-02-08T02:06:04.468Z,1.73
2023-02-08T02:07:03.409Z,1.72
2023-02-08T02:08:03.221Z,1.72
2023-02-08T02:09:03.270Z,1.72
2023-02-08T02:10:03.535Z,1.72
2023-02-08T02:11:03.283Z,1.70
2023-02-08T02:12:03.488Z,1.73
2023-02-08T02:13:03.264Z,1.71
2023-02-08T02:14:03.552Z,1.72
2023-02-08T02:15:03.335Z,1.72
2023-02-08T02:16:03.399Z,1.71
2023-02-08T02:17:03.980Z,1.70
2023-02-08T02:18:04.390Z,1.70
2023-02-08T02:19:04.449Z,1.72
2023-02-08T02:20:03.829Z,1.69
2023-02-08T02:21:04.331Z,1.68
2023-02-08T02:22:03.361Z,1.67
2023-02-08T02:23:03.466Z,1.71
2023-02-08T02:24:03.648Z,1.69
2023-02-08T02:25:03.679Z,1.70
2023-02-08T02:26:03.012Z,1.72
2023-02-08T02:27:03.900Z,1.69
2023-02-08T02:28:03.977Z,1.72
2023-02-08T02:29:03.970Z,1.67
2023-02-08T02:30:04.010Z,1.72
2023-02-08T02:31:03.984Z,1.71
2023-02-08T02:32:04.339Z,1.72
2023-02-08T02:33:04.232Z,1.69
2023-02-08T02:34:04.221Z,1.72
2023-02-08T02:35:03.784Z,1.69
2023-02-08T02:36:04.134Z,1.71
2023-02-08T02:37:04.196Z,1.72
2023-02-08T02:38:03.942Z,1.70
2023-02-08T02:39:04.334Z,1.69
2023-02-08T02:40:04.370Z,1.66
2023-02-08T02:41:04.338Z,1.67
2023-02-08T02:42:03.245Z,1.68
2023-02-08T02:43:03.250Z,1.66
2023-02-08T02:44:03.329Z,1.66
2023-02-08T02:45:03.342Z,1.69
2023-02-08T02:46:03.687Z,1.71
2023-02-08T02:47:03.652Z,1.66
2023-02-08T02:48:03.419Z,1.69
2023-02-08T02:49:03.539Z,1.67
2023-02-08T02:50:03.801Z,1.65
2023-02-08T02:51:03.333Z,1.65
2023-02-08T02:52:04.015Z,1.69
2023-02-08T02:53:04.064Z,1.67
2023-02-08T02:54:04.105Z,1.66
2023-02-08T02:55:04.286Z,1.67
2023-02-08T02:56:03.703Z,1.69
2023-02-08T02:57:03.650Z,1.64
2023-02-08T02:58:03.409Z,1.65
2023-02-08T02:59:03.734Z,1.65
2023-02-08T03:00:03.488Z,1.66
2023-02-08T03:01:03.693Z,1.65
2023-02-08T03:02:04.976Z,1.66
2023-02-08T03:03:04.290Z,1.67
2023-02-08T03:04:04.387Z,1.68
2023-02-08T03:05:04.430Z,1.66
2023-02-08T03:06:04.447Z,1.66
2023-02-08T03:07:04.134Z,1.65
2023-02-08T03:08:04.267Z,1.66
2023-02-08T03:09:04.144Z,1.66
2023-02-08T03:10:03.756Z,1.66
2023-02-08T03:11:03.726Z,1.63
2023-02-08T03:12:04.587Z,1.67
2023-02-08T03:13:04.238Z,1.65
2023-02-08T03:14:04.498Z,1.65
2023-02-08T03:15:04.553Z,1.63
2023-02-08T03:16:04.696Z,1.64
2023-02-08T03:17:03.823Z,1.64
2023-02-08T03:18:04.038Z,1.63
2023-02-08T03:19:04.077Z,1.63
2023-02-08T03:20:04.169Z,1.64
2023-02-08T03:21:04.121Z,1.62
2023-02-08T03:22:04.859Z,1.62
2023-02-08T03:23:04.639Z,1.62
2023-02-08T03:24:04.566Z,1.62
2023-02-08T03:25:04.679Z,1.65
2023-02-08T03:26:04.851Z,1.66
2023-02-08T03:27:04.803Z,1.62
2023-02-08T03:28:05.130Z,1.63
2023-02-08T03:29:04.376Z,1.67
2023-02-08T03:30:04.718Z,1.62
2023-02-08T03:31:04.860Z,1.64
2023-02-08T03:32:04.590Z,1.63
2023-02-08T03:33:04.581Z,1.62
2023-02-08T03:34:04.597Z,1.61
2023-02-08T03:35:04.033Z,1.63
2023-02-08T03:36:04.288Z,1.64
2023-02-08T03:37:04.115Z,1.63
2023-02-08T03:38:04.113Z,1.64
2023-02-08T03:39:04.089Z,1.62
2023-02-08T03:40:04.107Z,1.65
2023-02-08T03:41:03.680Z,1.58
2023-02-08T03:42:04.357Z,1.64
2023-02-08T03:43:04.158Z,1.62
2023-02-08T03:44:04.192Z,1.62
2023-02-08T03:45:04.361Z,1.62
2023-02-08T03:46:04.457Z,1.62
2023-02-08T03:47:04.143Z,1.62
2023-02-08T03:48:04.138Z,1.58
2023-02-08T03:49:04.102Z,1.64
2023-02-08T03:50:04.078Z,1.61
2023-02-08T03:51:03.885Z,1.64
2023-02-08T03:52:03.928Z,1.62
2023-02-08T03:53:04.349Z,1.61
2023-02-08T03:54:04.441Z,1.64
2023-02-08T03:55:04.047Z,1.57
2023-02-08T03:56:04.160Z,1.61
2023-02-08T03:57:04.180Z,1.60
2023-02-08T03:58:04.795Z,1.60
2023-02-08T03:59:04.193Z,1.61
2023-02-08T04:00:04.365Z,1.59
2023-02-08T04:01:04.830Z,1.60
2023-02-08T04:02:04.190Z,1.60
2023-02-08T04:03:04.472Z,1.62
2023-02-08T04:04:04.811Z,1.62
2023-02-08T04:05:04.397Z,1.60
2023-02-08T04:06:04.443Z,1.59
2023-02-08T04:07:04.659Z,1.61
2023-02-08T04:08:04.555Z,1.59
2023-02-08T04:09:04.553Z,1.61
2023-02-08T04:10:04.505Z,1.63
2023-02-08T04:11:04.548Z,1.63
2023-02-08T04:12:03.636Z,1.59
2023-02-08T04:13:04.166Z,1.60
2023-02-08T04:14:04.154Z,1.62
2023-02-08T04:15:03.545Z,1.60
2023-02-08T04:16:03.905Z,1.61
2023-02-08T04:17:03.936Z,1.61
2023-02-08T04:18:04.045Z,1.63
2023-02-08T04:19:03.844Z,1.59
2023-02-08T04:20:04.186Z,1.60
2023-02-08T04:21:04.429Z,1.59
2023-02-08T04:22:04.333Z,1.62
2023-02-08T04:23:04.621Z,1.61
2023-02-08T04:24:04.649Z,1.59
2023-02-08T04:25:04.599Z,1.60
2023-02-08T04:26:04.702Z,1.58
2023-02-08T04:27:05.958Z,1.58
2023-02-08T04:28:03.867Z,1.58
2023-02-08T04:29:03.401Z,1.62
2023-02-08T04:30:03.787Z,1.60
2023-02-08T04:31:03.678Z,1.64
2023-02-08T04:32:03.737Z,1.62
2023-02-08T04:33:04.161Z,3.17
2023-02-08T04:34:04.054Z,3.29
2023-02-08T04:35:04.188Z,3.46
2023-02-08T04:36:03.621Z,3.57
2023-02-08T04:37:03.980Z,3.64
2023-02-08T04:38:04.106Z,3.70
2023-02-08T04:39:04.063Z,3.77
2023-02-08T04:40:04.223Z,3.83
2023-02-08T04:41:04.244Z,2.90
2023-02-08T04:42:04.317Z,2.74
2023-02-08T04:43:04.253Z,2.64
2023-02-08T04:44:04.424Z,2.55
2023-02-08T04:45:04.644Z,2.52
2023-02-08T04:46:04.261Z,2.44
2023-02-08T04:47:03.398Z,2.39
2023-02-08T04:48:03.446Z,2.37
2023-02-08T04:49:03.315Z,2.31
2023-02-08T04:50:03.765Z,2.29
2023-02-08T04:51:03.287Z,2.26
2023-02-08T04:52:03.331Z,2.26
2023-02-08T04:53:03.656Z,2.24
2023-02-08T04:54:03.779Z,2.20
2023-02-08T04:55:03.408Z,2.16
2023-02-08T04:56:03.523Z,2.14
2023-02-08T04:57:03.359Z,2.16
2023-02-08T04:58:03.656Z,2.09
2023-02-08T04:59:03.674Z,2.08
2023-02-08T05:00:03.533Z,2.07
2023-02-08T05:01:03.792Z,2.08
2023-02-08T05:02:04.636Z,2.03
2023-02-08T05:03:05.052Z,2.61
2023-02-08T05:04:04.728Z,3.57
2023-02-08T05:05:04.891Z,3.72
2023-02-08T05:06:04.911Z,3.82
2023-02-08T05:07:04.018Z,3.86
2023-02-08T05:08:04.118Z,3.95
2023-02-08T05:09:04.248Z,4.02
2023-02-08T05:10:04.391Z,4.05
2023-02-08T05:11:04.057Z,4.07
2023-02-08T05:12:04.150Z,4.13
2023-02-08T05:13:04.249Z,4.19
2023-02-08T05:14:04.402Z,4.19
2023-02-08T05:15:04.519Z,4.20
2023-02-08T05:16:04.102Z,4.25
2023-02-08T05:17:04.153Z,4.26
2023-02-08T05:18:04.234Z,4.30
2023-02-08T05:19:04.386Z,4.30
2023-02-08T05:20:04.182Z,4.34
2023-02-08T05:21:04.009Z,4.34
2023-02-08T05:22:04.492Z,4.37
2023-02-08T05:23:03.942Z,4.39
2023-02-08T05:24:04.287Z,4.41
2023-02-08T05:25:04.294Z,4.40
2023-02-08T05:26:03.887Z,4.44
2023-02-08T05:27:04.337Z,4.45
2023-02-08T05:28:04.391Z,4.46
2023-02-08T05:29:04.169Z,4.47
2023-02-08T05:30:04.231Z,4.48
2023-02-08T05:31:04.481Z,4.49
2023-02-08T05:32:04.777Z,4.50
2023-02-08T05:33:04.846Z,4.51
2023-02-08T05:34:04.917Z,4.54
2023-02-08T05:35:04.546Z,4.56
2023-02-08T05:36:05.318Z,4.56
2023-02-08T05:37:03.920Z,4.58
2023-02-08T05:38:03.729Z,4.59
2023-02-08T05:39:03.955Z,4.58
2023-02-08T05:40:04.018Z,4.58
2023-02-08T05:41:03.866Z,4.59
2023-02-08T05:42:04.035Z,4.60
2023-02-08T05:43:04.117Z,4.58
2023-02-08T05:44:04.100Z,4.64
2023-02-08T05:45:04.187Z,4.61
2023-02-08T05:46:03.873Z,4.62
2023-02-08T05:47:04.198Z,4.63
2023-02-08T05:48:03.789Z,4.65
2023-02-08T05:49:04.216Z,4.62
2023-02-08T05:50:03.826Z,4.64
2023-02-08T05:51:03.913Z,4.65
2023-02-08T05:52:03.614Z,4.66
2023-02-08T05:53:03.846Z,4.65
2023-02-08T05:54:03.685Z,4.65
2023-02-08T05:55:03.503Z,4.67
2023-02-08T05:56:03.462Z,4.67
2023-02-08T05:57:04.431Z,4.68
2023-02-08T05:58:04.477Z,4.69
2023-02-08T05:59:04.579Z,4.69
2023-02-08T06:00:04.052Z,4.68
2023-02-08T06:01:04.434Z,4.68
2023-02-08T06:02:04.528Z,4.69
2023-02-08T06:03:04.631Z,4.70
2023-02-08T06:04:04.744Z,4.70
2023-02-08T06:05:04.225Z,4.71
2023-02-08T06:06:04.651Z,4.71
2023-02-08T06:07:04.106Z,4.73
2023-02-08T06:08:04.290Z,4.72
2023-02-08T06:09:04.164Z,4.74
2023-02-08T06:10:04.318Z,4.74
2023-02-08T06:11:03.817Z,4.72
2023-02-08T06:12:03.759Z,4.75
2023-02-08T06:13:04.023Z,4.75
2023-02-08T06:14:03.456Z,4.72
2023-02-08T06:15:03.840Z,4.73
2023-02-08T06:16:03.636Z,4.72
2023-02-08T06:17:04.577Z,4.73
2023-02-08T06:18:04.073Z,4.75
2023-02-08T06:19:04.346Z,4.75
2023-02-08T06:20:04.582Z,4.76
2023-02-08T06:21:04.073Z,4.75
2023-02-08T06:22:03.719Z,4.76
2023-02-08T06:23:03.852Z,4.73
2023-02-08T06:24:03.432Z,4.77
2023-02-08T06:25:03.485Z,4.77
2023-02-08T06:26:03.800Z,4.77
2023-02-08T06:27:04.028Z,4.72
2023-02-08T06:28:04.152Z,4.75
2023-02-08T06:29:04.320Z,4.74
2023-02-08T06:30:04.474Z,4.77
2023-02-08T06:31:03.976Z,4.76
2023-02-08T06:32:04.623Z,4.76
2023-02-08T06:33:04.417Z,4.78
2023-02-08T06:34:04.511Z,4.76
2023-02-08T06:35:03.985Z,4.75
2023-02-08T06:36:04.129Z,4.78
2023-02-08T06:37:04.010Z,4.73
2023-02-08T06:38:03.787Z,4.78
2023-02-08T06:39:03.725Z,4.78
2023-02-08T06:40:03.691Z,4.79
2023-02-08T06:41:03.384Z,4.79
2023-02-08T06:42:04.388Z,4.77
2023-02-08T06:43:04.044Z,4.78
2023-02-08T06:44:04.251Z,4.77
2023-02-08T06:45:04.053Z,4.77
2023-02-08T06:46:03.806Z,4.80
2023-02-08T06:47:03.590Z,4.80
2023-02-08T06:48:03.725Z,4.80
2023-02-08T06:49:03.559Z,4.79
2023-02-08T06:50:03.752Z,4.78
2023-02-08T06:51:03.688Z,4.79
2023-02-08T06:52:02.992Z,4.79
2023-02-08T06:53:02.921Z,4.78
2023-02-08T06:54:03.471Z,4.82
2023-02-08T06:55:02.912Z,4.80
2023-02-08T06:56:03.340Z,4.80
2023-02-08T06:57:04.105Z,4.80
2023-02-08T06:58:03.846Z,4.80
2023-02-08T06:59:04.053Z,4.81
2023-02-08T07:00:03.529Z,4.78
2023-02-08T07:01:03.990Z,4.81
2023-02-08T07:02:04.593Z,4.79
2023-02-08T07:03:04.852Z,4.80
2023-02-08T07:04:04.418Z,4.82
2023-02-08T07:05:04.913Z,4.81
2023-02-08T07:06:05.734Z,4.81
2023-02-08T07:07:03.795Z,4.79
2023-02-08T07:08:04.043Z,4.82
2023-02-08T07:09:04.334Z,4.81
2023-02-08T07:10:03.885Z,4.81
2023-02-08T07:11:04.010Z,4.82
2023-02-08T07:12:04.350Z,4.81
2023-02-08T07:13:04.721Z,4.82
2023-02-08T07:14:04.275Z,4.82
2023-02-08T07:15:04.444Z,4.80
2023-02-08T07:16:04.554Z,4.82
2023-02-08T07:17:03.994Z,4.80
2023-02-08T07:18:04.207Z,4.82
2023-02-08T07:19:04.432Z,4.81
2023-02-08T07:20:03.898Z,4.82
2023-02-08T07:21:04.141Z,4.81
2023-02-08T07:22:07.208Z,4.82
2023-02-08T07:23:04.850Z,4.82
2023-02-08T07:24:04.680Z,4.80
2023-02-08T07:25:04.279Z,4.83
2023-02-08T07:26:04.825Z,4.82
2023-02-08T07:27:04.468Z,4.81
2023-02-08T07:28:05.010Z,4.81
2023-02-08T07:29:04.444Z,4.85
2023-02-08T07:30:04.755Z,4.82
2023-02-08T07:31:04.570Z,4.83
2023-02-08T07:32:03.957Z,4.81
2023-02-08T07:33:04.370Z,4.81
2023-02-08T07:34:03.950Z,4.82
2023-02-08T07:35:04.255Z,4.83
2023-02-08T07:36:03.662Z,4.82
2023-02-08T07:37:04.348Z,4.81
2023-02-08T07:38:04.537Z,4.85
2023-02-08T07:39:04.825Z,4.84
2023-02-08T07:40:04.385Z,4.82
2023-02-08T07:41:04.538Z,4.82
2023-02-08T07:42:03.743Z,4.84
2023-02-08T07:43:03.973Z,4.84
2023-02-08T07:44:04.145Z,4.83
2023-02-08T07:45:03.540Z,4.85
2023-02-08T07:46:04.081Z,4.85
2023-02-08T07:47:04.391Z,4.84
2023-02-08T07:48:04.669Z,4.84
2023-02-08T07:49:04.158Z,4.82
2023-02-08T07:50:04.647Z,4.85
2023-02-08T07:51:04.143Z,4.83
2023-02-08T07:52:03.544Z,4.82
2023-02-08T07:53:03.736Z,4.82
2023-02-08T07:54:03.299Z,4.83
2023-02-08T07:55:03.438Z,4.84
2023-02-08T07:56:03.583Z,4.83
2023-02-08T07:57:04.173Z,4.84
2023-02-08T07:58:03.835Z,4.82
2023-02-08T07:59:04.414Z,4.85
2023-02-08T08:00:03.957Z,4.83
2023-02-08T08:01:19.529Z,4.84
2023-02-08T08:02:04.452Z,4.84
2023-02-08T08:03:04.034Z,4.84
2023-02-08T08:04:04.498Z,4.84
2023-02-08T08:05:04.071Z,4.82
2023-02-08T08:06:04.272Z,4.85
2023-02-08T08:07:03.696Z,4.84
2023-02-08T08:08:03.367Z,4.84
2023-02-08T08:09:03.843Z,4.85
2023-02-08T08:10:03.566Z,4.84
2023-02-08T08:11:04.016Z,4.85
2023-02-08T08:12:04.216Z,4.85
2023-02-08T08:13:04.170Z,4.82
2023-02-08T08:14:04.324Z,4.85
2023-02-08T08:15:04.496Z,4.85
2023-02-08T08:16:04.060Z,4.84
2023-02-08T08:17:03.633Z,4.83
2023-02-08T08:18:03.841Z,4.85
2023-02-08T08:19:03.355Z,4.86
2023-02-08T08:20:03.316Z,4.86
2023-02-08T08:21:03.751Z,4.82
2023-02-08T08:22:03.958Z,4.83
2023-02-08T08:23:03.950Z,4.84
2023-02-08T08:24:03.618Z,4.86
2023-02-08T08:25:04.109Z,4.85
2023-02-08T08:26:04.096Z,4.86
2023-02-08T08:27:04.817Z,4.84
2023-02-08T08:28:04.157Z,4.86
2023-02-08T08:29:04.177Z,4.85
2023-02-08T08:30:03.754Z,4.85
2023-02-08T08:31:04.037Z,4.85
2023-02-08T08:32:03.376Z,4.85
2023-02-08T08:33:03.115Z,4.84
2023-02-08T08:34:03.566Z,4.85
2023-02-08T08:35:03.124Z,4.85
2023-02-08T08:36:03.468Z,4.86
2023-02-08T08:37:03.875Z,4.89
2023-02-08T08:38:03.440Z,4.85
2023-02-08T08:39:03.405Z,4.86
2023-02-08T08:40:03.821Z,4.87
2023-02-08T08:41:03.416Z,4.86
2023-02-08T08:42:03.886Z,4.84
2023-02-08T08:43:04.056Z,4.87
2023-02-08T08:44:03.602Z,4.86
2023-02-08T08:45:03.887Z,4.87
2023-02-08T08:46:03.847Z,4.87
2023-02-08T08:47:03.176Z,4.87
2023-02-08T08:48:03.446Z,4.86
2023-02-08T08:49:02.939Z,4.86
2023-02-08T08:50:03.391Z,4.87
2023-02-08T08:51:03.014Z,4.83
2023-02-08T08:52:03.642Z,4.86
2023-02-08T08:53:03.332Z,4.86
2023-02-08T08:54:03.818Z,4.86
2023-02-08T08:55:03.366Z,4.87
2023-02-08T08:56:03.637Z,4.85
2023-02-08T08:58:03.316Z,4.86
2023-02-08T08:59:03.881Z,4.85
2023-02-08T09:00:03.661Z,4.88
2023-02-08T09:01:03.392Z,4.88
2023-02-08T09:02:04.363Z,4.87
2023-02-08T09:03:03.990Z,4.86
2023-02-08T09:04:04.367Z,4.87
2023-02-08T09:05:03.948Z,4.88
2023-02-08T09:06:04.052Z,4.86
2023-02-08T09:07:02.953Z,4.87
2023-02-08T09:08:03.117Z,4.86
2023-02-08T09:09:03.390Z,4.90
2023-02-08T09:10:03.028Z,4.88
2023-02-08T09:11:03.044Z,4.88
2023-02-08T09:12:04.016Z,4.87
2023-02-08T09:13:03.674Z,4.87
2023-02-08T09:14:04.644Z,4.88
2023-02-08T09:15:03.758Z,4.89
2023-02-08T09:16:04.076Z,4.87
2023-02-08T09:17:03.431Z,4.89
2023-02-08T09:18:03.188Z,4.90
2023-02-08T09:19:03.439Z,4.89
2023-02-08T09:20:04.835Z,4.87
2023-02-08T09:21:03.247Z,4.89
2023-02-08T09:22:03.954Z,4.89
2023-02-08T09:23:03.501Z,4.89
2023-02-08T09:24:03.909Z,4.89
2023-02-08T09:25:03.401Z,4.91
2023-02-08T09:26:03.636Z,4.87
2023-02-08T09:27:03.998Z,4.90
2023-02-08T09:28:03.508Z,4.90
2023-02-08T09:29:03.679Z,4.89
2023-02-08T09:30:03.900Z,4.91
2023-02-08T09:31:04.087Z,4.90
2023-02-08T09:32:03.504Z,4.89
2023-02-08T09:33:03.217Z,4.91
2023-02-08T09:34:03.406Z,4.91
2023-02-08T09:35:03.347Z,4.90
2023-02-08T09:36:02.878Z,4.90
2023-02-08T09:37:04.019Z,4.91
2023-02-08T09:38:03.740Z,4.88
2023-02-08T09:39:03.417Z,4.89
2023-02-08T09:40:03.617Z,4.91
2023-02-08T09:41:03.804Z,4.89
2023-02-08T09:42:04.125Z,4.92
2023-02-08T09:43:03.681Z,4.91
2023-02-08T09:44:03.931Z,4.91
2023-02-08T09:45:04.015Z,4.91
2023-02-08T09:46:03.983Z,4.91
2023-02-08T09:47:02.633Z,4.92
2023-02-08T09:48:02.915Z,4.91
2023-02-08T09:49:03.143Z,4.92
2023-02-08T09:50:02.705Z,4.91
2023-02-08T09:51:03.070Z,4.92
2023-02-08T09:52:02.826Z,4.91
2023-02-08T09:53:03.199Z,4.90
2023-02-08T09:54:02.747Z,4.94
2023-02-08T09:55:03.124Z,4.91
2023-02-08T09:56:03.172Z,4.91
2023-02-08T09:57:03.263Z,4.94
2023-02-08T09:58:03.821Z,4.93
2023-02-08T09:59:03.294Z,4.95
2023-02-08T10:00:03.213Z,4.91
2023-02-08T10:01:05.868Z,4.91
2023-02-08T10:02:04.785Z,4.94
2023-02-08T10:03:04.902Z,4.94
2023-02-08T10:04:04.969Z,4.94
2023-02-08T10:05:04.474Z,4.94
2023-02-08T10:06:04.516Z,4.96
2023-02-08T10:07:03.726Z,4.96
2023-02-08T10:08:04.029Z,4.93
2023-02-08T10:09:03.746Z,4.94
2023-02-08T10:10:03.986Z,4.97
2023-02-08T10:11:04.069Z,4.96
2023-02-08T10:12:04.278Z,4.98
2023-02-08T10:13:04.293Z,4.98
2023-02-08T10:14:04.614Z,4.96
2023-02-08T10:15:04.440Z,4.99
2023-02-08T10:16:04.743Z,5.02
2023-02-08T10:17:03.847Z,5.02
2023-02-08T10:18:04.341Z,5.02
2023-02-08T10:19:03.886Z,5.01
2023-02-08T10:20:04.233Z,5.02
2023-02-08T10:21:04.250Z,5.04
2023-02-08T10:22:03.893Z,5.04
2023-02-08T10:23:03.357Z,5.04
2023-02-08T10:24:03.549Z,5.03
2023-02-08T10:25:03.323Z,5.05
2023-02-08T10:26:03.637Z,5.06
2023-02-08T10:27:03.937Z,5.06
2023-02-08T10:28:03.774Z,5.06
2023-02-08T10:29:03.376Z,5.06
2023-02-08T10:30:03.369Z,5.05
2023-02-08T10:31:03.480Z,5.07
2023-02-08T10:32:03.547Z,5.05
2023-02-08T10:33:03.737Z,5.06
2023-02-08T10:34:05.461Z,5.05
2023-02-08T10:35:04.262Z,5.07
2023-02-08T10:36:04.114Z,5.10
2023-02-08T10:37:04.148Z,5.09
2023-02-08T10:38:04.710Z,5.10
2023-02-08T10:39:04.671Z,5.10
2023-02-08T10:40:04.148Z,5.11
2023-02-08T10:41:04.244Z,5.12
2023-02-08T10:42:03.397Z,5.11
2023-02-08T10:43:03.544Z,5.10
2023-02-08T10:44:03.978Z,5.13
2023-02-08T10:45:08.277Z,5.12
2023-02-08T10:46:03.701Z,5.12
2023-02-08T10:47:03.793Z,5.14
2023-02-08T10:48:03.753Z,5.14
2023-02-08T10:49:04.057Z,5.17
2023-02-08T10:50:04.043Z,5.16
2023-02-08T10:51:04.009Z,5.16
2023-02-08T10:52:04.342Z,5.17
2023-02-08T10:53:04.124Z,5.18
2023-02-08T10:54:04.592Z,5.18
2023-02-08T10:55:03.983Z,5.20
2023-02-08T10:56:04.437Z,5.21
2023-02-08T10:57:04.120Z,5.21
2023-02-08T10:58:04.282Z,5.22
2023-02-08T10:59:04.899Z,5.26
2023-02-08T11:00:04.612Z,5.28
2023-02-08T11:01:05.154Z,5.28
2023-02-08T11:02:04.797Z,5.29
2023-02-08T11:03:04.927Z,5.27
2023-02-08T11:04:05.423Z,5.33
2023-02-08T11:05:04.774Z,5.34
2023-02-08T11:06:05.245Z,5.34
2023-02-08T11:07:04.486Z,5.35
2023-02-08T11:08:04.673Z,5.36
2023-02-08T11:09:04.261Z,5.38
2023-02-08T11:10:04.347Z,5.37
2023-02-08T11:11:04.596Z,5.39
2023-02-08T11:12:04.567Z,5.40
2023-02-08T11:13:04.795Z,5.40
2023-02-08T11:14:05.274Z,5.40
2023-02-08T11:15:04.600Z,5.41
2023-02-08T11:16:04.697Z,5.45
2023-02-08T11:17:04.300Z,5.41
2023-02-08T11:18:04.350Z,5.42
2023-02-08T11:19:04.664Z,5.44
2023-02-08T11:20:04.564Z,5.45
2023-02-08T11:21:04.593Z,5.46
2023-02-08T11:22:04.443Z,5.45
2023-02-08T11:23:04.445Z,5.47
2023-02-08T11:24:05.160Z,5.48
2023-02-08T11:25:04.742Z,5.48
2023-02-08T11:26:04.810Z,5.50
2023-02-08T11:27:04.322Z,5.49
2023-02-08T11:28:04.022Z,5.50
2023-02-08T11:29:04.048Z,5.49
2023-02-08T11:30:04.460Z,5.51
2023-02-08T11:31:03.960Z,5.51
2023-02-08T11:32:04.262Z,5.53
2023-02-08T11:33:04.280Z,5.53
2023-02-08T11:34:05.180Z,5.52
2023-02-08T11:35:03.980Z,5.53
2023-02-08T11:36:04.032Z,5.55
2023-02-08T11:37:04.222Z,5.51
2023-02-08T11:38:04.365Z,5.54
2023-02-08T11:39:03.941Z,5.54
2023-02-08T11:40:04.450Z,5.54
2023-02-08T11:41:04.334Z,5.56
2023-02-08T11:42:04.571Z,5.56
2023-02-08T11:43:04.565Z,5.56
2023-02-08T11:44:04.282Z,5.56
2023-02-08T11:45:04.346Z,5.56
2023-02-08T11:46:04.505Z,5.56
2023-02-08T11:47:04.689Z,5.57
2023-02-08T11:48:04.941Z,5.57
2023-02-08T11:49:04.444Z,5.58
2023-02-08T11:50:04.637Z,5.57
2023-02-08T11:51:04.793Z,5.57
2023-02-08T11:52:04.828Z,5.57
2023-02-08T11:53:04.888Z,5.56
2023-02-08T11:54:04.580Z,5.57
2023-02-08T11:55:04.803Z,5.57
2023-02-08T11:56:04.830Z,5.56
2023-02-08T11:57:04.018Z,5.57
2023-02-08T11:58:04.174Z,5.57
2023-02-08T11:59:03.913Z,5.58
2023-02-08T12:00:03.855Z,5.57
2023-02-08T12:01:03.708Z,5.57
2023-02-08T12:02:04.262Z,5.57
2023-02-08T12:03:03.773Z,5.58
2023-02-08T12:04:03.857Z,5.57
2023-02-08T12:05:03.949Z,5.57
2023-02-08T12:06:04.068Z,5.57
2023-02-08T12:07:03.943Z,5.58
2023-02-08T12:08:04.185Z,5.58
2023-02-08T12:09:04.378Z,5.57
2023-02-08T12:10:03.887Z,5.57
2023-02-08T12:11:04.290Z,5.59
2023-02-08T12:12:03.759Z,5.58
2023-02-08T12:13:03.711Z,5.56
2023-02-08T12:14:03.902Z,5.59
2023-02-08T12:15:03.305Z,5.59
2023-02-08T12:16:04.265Z,5.58
2023-02-08T12:17:03.773Z,5.59
2023-02-08T12:18:03.529Z,5.60
2023-02-08T12:19:03.469Z,5.58
2023-02-08T12:20:03.647Z,5.61
2023-02-08T12:21:03.545Z,5.58
2023-02-08T12:22:03.820Z,5.59
2023-02-08T12:23:03.711Z,5.58
2023-02-08T12:24:03.994Z,5.59
2023-02-08T12:25:03.565Z,5.60
2023-02-08T12:26:03.930Z,5.59
2023-02-08T12:27:04.423Z,5.59
2023-02-08T12:28:04.528Z,5.62
2023-02-08T12:29:04.624Z,5.61
2023-02-08T12:30:04.069Z,5.60
2023-02-08T12:31:04.650Z,5.61
2023-02-08T12:32:03.554Z,5.59
2023-02-08T12:33:03.614Z,5.59
2023-02-08T12:34:03.503Z,5.59
2023-02-08T12:35:03.422Z,5.59
2023-02-08T12:36:05.259Z,5.59
2023-02-08T12:37:03.578Z,5.61
2023-02-08T12:38:03.655Z,5.60
2023-02-08T12:39:17.849Z,5.58
2023-02-08T12:40:03.548Z,5.59
2023-02-08T12:41:03.711Z,5.61
2023-02-08T12:42:03.920Z,5.57
2023-02-08T12:43:03.786Z,5.58
2023-02-08T12:44:03.848Z,5.58
2023-02-08T12:45:03.912Z,5.58
2023-02-08T12:46:03.795Z,5.59
2023-02-08T12:47:03.623Z,5.56
2023-02-08T12:48:04.616Z,5.57
2023-02-08T12:49:03.408Z,5.58
2023-02-08T12:50:03.198Z,5.58
2023-02-08T12:51:03.398Z,5.57
2023-02-08T12:52:03.624Z,5.56
2023-02-08T12:53:03.696Z,5.57
2023-02-08T12:54:03.512Z,5.56
2023-02-08T12:55:03.703Z,5.56
2023-02-08T12:56:03.560Z,5.56
2023-02-08T12:57:03.957Z,5.58
2023-02-08T12:58:03.514Z,5.57
2023-02-08T12:59:13.191Z,5.58
2023-02-08T13:00:03.736Z,5.57
2023-02-08T13:01:03.901Z,5.56
2023-02-08T13:02:04.370Z,5.58
2023-02-08T13:03:03.851Z,5.57
2023-02-08T13:04:04.259Z,5.56
2023-02-08T13:05:04.270Z,5.57
2023-02-08T13:06:04.751Z,5.59
2023-02-08T13:07:04.376Z,5.60
2023-02-08T13:08:04.444Z,5.57
2023-02-08T13:09:03.956Z,5.61
2023-02-08T13:10:04.054Z,5.58
2023-02-08T13:11:18.861Z,5.58
2023-02-08T13:12:04.077Z,5.56
2023-02-08T13:13:03.578Z,5.56
2023-02-08T13:14:03.734Z,5.58
2023-02-08T13:15:03.470Z,5.56
2023-02-08T13:16:03.822Z,5.57
2023-02-08T13:17:03.068Z,5.57
2023-02-08T13:18:03.511Z,5.57
2023-02-08T13:19:03.500Z,5.56